sensor_id;sensor_type;location;lat;lon;timestamp;P1;durP1;ratioP1;P2;durP2;ratioP2
5237;SDS011;2639;49.700;7.962;2023-07-13T03:07:39;1999.90;;;999.90;;
5237;SDS011;2639;49.700;7.962;2023-07-13T03:08:41;1999.90;;;999.90;;
5237;SDS011;2639;49.700;7.962;2023-07-13T03:09:43;1999.90;;;999.90;;
5237;SDS011;2639;49.700;7.962;2023-07-13T03:10:45;1999.90;;;999.90;;
5237;SDS011;2639;49.700;7.962;2023-07-13T03:11:48;1999.90;;;999.90;;
5237;SDS011;2639;49.700;7.962;2023-07-13T03:12:56;1999.90;;;999.90;;
5237;SDS011;2639;49.700;7.962;2023-07-13T03:14:01;1999.90;;;999.90;;
5237;SDS011;2639;49.700;7.962;2023-07-13T03:15:07;1999.90;;;999.90;;
5237;SDS011;2639;49.700;7.962;2023-07-13T03:16:13;1999.90;;;999.90;;
5237;SDS011;2639;49.700;7.962;2023-07-13T03:17:21;1999.90;;;999.90;;
5237;SDS011;2639;49.700;7.962;2023-07-13T03:18:26;1999.90;;;999.90;;
5237;SDS011;2639;49.700;7.962;2023-07-13T03:19:30;1999.90;;;999.90;;
5237;SDS011;2639;49.700;7.962;2023-07-13T03:20:33;1999.90;;;999.90;;
5237;SDS011;2639;49.700;7.962;2023-07-13T03:21:38;1999.90;;;999.90;;
5237;SDS011;2639;49.700;7.962;2023-07-13T03:22:42;1999.90;;;999.90;;
5237;SDS011;2639;49.700;7.962;2023-07-13T03:23:44;1999.90;;;999.90;;
5237;SDS011;2639;49.700;7.962;2023-07-13T03:24:46;1999.90;;;999.90;;
5237;SDS011;2639;49.700;7.962;2023-07-13T03:25:50;1999.90;;;999.90;;
5237;SDS011;2639;49.700;7.962;2023-07-13T03:27:03;1999.90;;;999.90;;
5237;SDS011;2639;49.700;7.962;2023-07-13T03:28:09;1999.90;;;999.90;;
5237;SDS011;2639;49.700;7.962;2023-07-13T03:29:12;1999.90;;;999.90;;
5237;SDS011;2639;49.700;7.962;2023-07-13T03:30:14;1999.90;;;999.90;;
5237;SDS011;2639;49.700;7.962;2023-07-13T03:31:18;1999.90;;;999.90;;
5237;SDS011;2639;49.700;7.962;2023-07-13T03:32:22;1999.90;;;999.90;;
5237;SDS011;2639;49.700;7.962;2023-07-13T03:33:24;1999.90;;;999.90;;
5237;SDS011;2639;49.700;7.962;2023-07-13T03:34:26;1999.90;;;999.90;;
5237;SDS011;2639;49.700;7.962;2023-07-13T03:35:29;1999.90;;;999.90;;
5237;SDS011;2639;49.700;7.962;2023-07-13T03:36:31;1999.90;;;999.90;;
5237;SDS011;2639;49.700;7.962;2023-07-13T03:37:39;1999.90;;;999.90;;
5237;SDS011;2639;49.700;7.962;2023-07-13T03:38:51;1999.90;;;999.90;;
5237;SDS011;2639;49.700;7.962;2023-07-13T03:39:58;1999.90;;;999.90;;
5237;SDS011;2639;49.700;7.962;2023-07-13T03:41:00;1999.90;;;999.90;;
5237;SDS011;2639;49.700;7.962;2023-07-13T03:42:04;1999.90;;;999.90;;
5237;SDS011;2639;49.700;7.962;2023-07-13T03:43:07;1999.90;;;999.90;;
5237;SDS011;2639;49.700;7.962;2023-07-13T03:44:09;1999.90;;;999.90;;
5237;SDS011;2639;49.700;7.962;2023-07-13T03:45:11;1999.90;;;999.90;;
5237;SDS011;2639;49.700;7.962;2023-07-13T03:46:14;1999.90;;;999.90;;
5237;SDS011;2639;49.700;7.962;2023-07-13T03:47:17;1999.90;;;999.90;;
5237;SDS011;2639;49.700;7.962;2023-07-13T03:48:20;1999.90;;;999.90;;
5237;SDS011;2639;49.700;7.962;2023-07-13T03:49:22;1999.90;;;999.90;;
5237;SDS011;2639;49.700;7.962;2023-07-13T03:50:24;1999.90;;;999.90;;
5237;SDS011;2639;49.700;7.962;2023-07-13T03:51:26;1999.90;;;999.90;;
5237;SDS011;2639;49.700;7.962;2023-07-13T03:52:29;1999.90;;;999.90;;
5237;SDS011;2639;49.700;7.962;2023-07-13T03:53:31;1999.90;;;999.90;;
5237;SDS011;2639;49.700;7.962;2023-07-13T03:54:35;1999.90;;;999.90;;
5237;SDS011;2639;49.700;7.962;2023-07-13T03:55:36;1999.90;;;999.90;;
5237;SDS011;2639;49.700;7.962;2023-07-13T03:56:39;1999.90;;;999.90;;
5237;SDS011;2639;49.700;7.962;2023-07-13T03:57:43;1999.90;;;999.90;;
5237;SDS011;2639;49.700;7.962;2023-07-13T03:58:47;1999.90;;;999.90;;
5237;SDS011;2639;49.700;7.962;2023-07-13T03:59:54;1999.90;;;999.90;;
5237;SDS011;2639;49.700;7.962;2023-07-13T04:00:57;1999.90;;;999.90;;
5237;SDS011;2639;49.700;7.962;2023-07-13T04:02:00;1999.90;;;999.90;;
5237;SDS011;2639;49.700;7.962;2023-07-13T04:03:03;1999.90;;;999.90;;
5237;SDS011;2639;49.700;7.962;2023-07-13T04:04:05;1999.90;;;999.90;;
5237;SDS011;2639;49.700;7.962;2023-07-13T04:05:08;1999.90;;;999.90;;
5237;SDS011;2639;49.700;7.962;2023-07-13T04:06:13;1999.90;;;999.90;;
5237;SDS011;2639;49.700;7.962;2023-07-13T04:07:22;1999.90;;;999.90;;
5237;SDS011;2639;49.700;7.962;2023-07-13T04:08:24;1999.90;;;999.90;;
5237;SDS011;2639;49.700;7.962;2023-07-13T04:09:27;1999.90;;;999.90;;
5237;SDS011;2639;49.700;7.962;2023-07-13T04:10:30;1999.90;;;999.90;;
5237;SDS011;2639;49.700;7.962;2023-07-13T04:11:32;1999.90;;;999.90;;
5237;SDS011;2639;49.700;7.962;2023-07-13T04:12:35;1999.90;;;999.90;;
5237;SDS011;2639;49.700;7.962;2023-07-13T04:13:38;1999.90;;;999.90;;
5237;SDS011;2639;49.700;7.962;2023-07-13T04:14:39;1999.90;;;999.90;;
5237;SDS011;2639;49.700;7.962;2023-07-13T04:15:42;1999.90;;;999.90;;
5237;SDS011;2639;49.700;7.962;2023-07-13T04:16:44;1999.90;;;999.90;;
5237;SDS011;2639;49.700;7.962;2023-07-13T04:17:47;1999.90;;;999.90;;
5237;SDS011;2639;49.700;7.962;2023-07-13T04:18:49;1999.90;;;999.90;;
5237;SDS011;2639;49.700;7.962;2023-07-13T04:19:55;1999.90;;;999.90;;
5237;SDS011;2639;49.700;7.962;2023-07-13T04:20:57;1999.90;;;999.90;;
5237;SDS011;2639;49.700;7.962;2023-07-13T04:22:00;1999.90;;;999.90;;
5237;SDS011;2639;49.700;7.962;2023-07-13T04:23:02;1999.90;;;999.90;;
5237;SDS011;2639;49.700;7.962;2023-07-13T04:24:05;1999.90;;;999.90;;
5237;SDS011;2639;49.700;7.962;2023-07-13T04:25:07;1999.90;;;999.90;;
5237;SDS011;2639;49.700;7.962;2023-07-13T04:26:11;1999.90;;;999.90;;
5237;SDS011;2639;49.700;7.962;2023-07-13T04:27:13;1999.90;;;999.90;;
5237;SDS011;2639;49.700;7.962;2023-07-13T04:28:16;1999.90;;;999.90;;
5237;SDS011;2639;49.700;7.962;2023-07-13T04:29:18;1999.90;;;999.90;;
5237;SDS011;2639;49.700;7.962;2023-07-13T04:30:21;1999.90;;;999.90;;
5237;SDS011;2639;49.700;7.962;2023-07-13T04:31:23;1999.90;;;999.90;;
5237;SDS011;2639;49.700;7.962;2023-07-13T04:32:26;1999.90;;;999.90;;
5237;SDS011;2639;49.700;7.962;2023-07-13T04:33:28;1999.90;;;999.90;;
5237;SDS011;2639;49.700;7.962;2023-07-13T04:34:30;1999.90;;;999.90;;
5237;SDS011;2639;49.700;7.962;2023-07-13T04:35:32;1999.90;;;999.90;;
5237;SDS011;2639;49.700;7.962;2023-07-13T04:36:35;1999.90;;;999.90;;
5237;SDS011;2639;49.700;7.962;2023-07-13T04:37:39;1999.90;;;999.90;;
5237;SDS011;2639;49.700;7.962;2023-07-13T04:38:41;1999.90;;;999.90;;
5237;SDS011;2639;49.700;7.962;2023-07-13T04:39:43;1999.90;;;999.90;;
5237;SDS011;2639;49.700;7.962;2023-07-13T04:40:46;1999.90;;;999.90;;
5237;SDS011;2639;49.700;7.962;2023-07-13T04:41:50;1999.90;;;999.90;;
5237;SDS011;2639;49.700;7.962;2023-07-13T04:42:52;1999.90;;;999.90;;
5237;SDS011;2639;49.700;7.962;2023-07-13T04:43:54;1999.90;;;999.90;;
5237;SDS011;2639;49.700;7.962;2023-07-13T04:44:57;1999.90;;;999.90;;
5237;SDS011;2639;49.700;7.962;2023-07-13T04:46:02;1999.90;;;999.90;;
5237;SDS011;2639;49.700;7.962;2023-07-13T04:47:06;1999.90;;;999.90;;
5237;SDS011;2639;49.700;7.962;2023-07-13T04:48:08;1999.90;;;999.90;;
5237;SDS011;2639;49.700;7.962;2023-07-13T04:49:11;1999.90;;;999.90;;
5237;SDS011;2639;49.700;7.962;2023-07-13T04:50:13;1999.90;;;999.90;;
5237;SDS011;2639;49.700;7.962;2023-07-13T04:51:23;1999.90;;;999.90;;
5237;SDS011;2639;49.700;7.962;2023-07-13T04:52:25;1999.90;;;999.90;;
5237;SDS011;2639;49.700;7.962;2023-07-13T04:53:28;1999.90;;;999.90;;
5237;SDS011;2639;49.700;7.962;2023-07-13T04:54:31;1999.90;;;999.90;;
5237;SDS011;2639;49.700;7.962;2023-07-13T04:55:33;1999.90;;;999.90;;
5237;SDS011;2639;49.700;7.962;2023-07-13T04:56:35;1999.90;;;999.90;;
5237;SDS011;2639;49.700;7.962;2023-07-13T04:57:39;1999.90;;;999.90;;
5237;SDS011;2639;49.700;7.962;2023-07-13T04:58:41;1999.90;;;999.90;;
5237;SDS011;2639;49.700;7.962;2023-07-13T04:59:43;1999.90;;;999.90;;
5237;SDS011;2639;49.700;7.962;2023-07-13T05:00:45;1999.90;;;999.90;;
5237;SDS011;2639;49.700;7.962;2023-07-13T06:37:22;1999.90;;;999.90;;
5237;SDS011;2639;49.700;7.962;2023-07-13T06:38:24;1999.90;;;999.90;;
5237;SDS011;2639;49.700;7.962;2023-07-13T06:39:26;1999.90;;;999.90;;
5237;SDS011;2639;49.700;7.962;2023-07-13T06:40:28;1999.90;;;999.90;;
5237;SDS011;2639;49.700;7.962;2023-07-13T06:41:31;1999.90;;;999.90;;
5237;SDS011;2639;49.700;7.962;2023-07-13T06:42:34;1999.90;;;999.90;;
5237;SDS011;2639;49.700;7.962;2023-07-13T06:43:37;1999.90;;;999.90;;
5237;SDS011;2639;49.700;7.962;2023-07-13T06:44:39;1999.90;;;999.90;;
5237;SDS011;2639;49.700;7.962;2023-07-13T06:45:43;1999.90;;;999.90;;
5237;SDS011;2639;49.700;7.962;2023-07-13T06:46:47;1999.90;;;999.90;;
5237;SDS011;2639;49.700;7.962;2023-07-13T06:47:49;1999.90;;;999.90;;
5237;SDS011;2639;49.700;7.962;2023-07-13T06:48:51;1999.90;;;999.90;;
5237;SDS011;2639;49.700;7.962;2023-07-13T06:49:53;1999.90;;;999.90;;
5237;SDS011;2639;49.700;7.962;2023-07-13T06:50:56;1999.90;;;999.90;;
5237;SDS011;2639;49.700;7.962;2023-07-13T06:51:58;1999.90;;;999.90;;
5237;SDS011;2639;49.700;7.962;2023-07-13T06:53:02;1999.90;;;999.90;;
5237;SDS011;2639;49.700;7.962;2023-07-13T06:54:04;1999.90;;;999.90;;
5237;SDS011;2639;49.700;7.962;2023-07-13T06:55:07;1999.90;;;999.90;;
5237;SDS011;2639;49.700;7.962;2023-07-13T06:56:09;1999.90;;;999.90;;
5237;SDS011;2639;49.700;7.962;2023-07-13T06:57:12;1999.90;;;999.90;;
5237;SDS011;2639;49.700;7.962;2023-07-13T06:58:14;1999.90;;;720.03;;
5237;SDS011;2639;49.700;7.962;2023-07-13T06:59:18;1999.90;;;999.90;;
5237;SDS011;2639;49.700;7.962;2023-07-13T07:00:20;1999.90;;;774.53;;
5237;SDS011;2639;49.700;7.962;2023-07-13T07:01:23;1886.85;;;684.33;;
5237;SDS011;2639;49.700;7.962;2023-07-13T07:02:25;1999.90;;;999.90;;
5237;SDS011;2639;49.700;7.962;2023-07-13T07:03:28;1999.90;;;999.90;;
5237;SDS011;2639;49.700;7.962;2023-07-13T07:04:30;1999.90;;;999.90;;
5237;SDS011;2639;49.700;7.962;2023-07-13T07:05:33;1999.90;;;854.57;;
5237;SDS011;2639;49.700;7.962;2023-07-13T07:06:34;1999.90;;;999.90;;
5237;SDS011;2639;49.700;7.962;2023-07-13T07:07:37;1999.90;;;999.90;;
5237;SDS011;2639;49.700;7.962;2023-07-13T07:08:40;1999.90;;;534.33;;
5237;SDS011;2639;49.700;7.962;2023-07-13T07:09:43;1999.90;;;999.90;;
5237;SDS011;2639;49.700;7.962;2023-07-13T07:10:45;1999.90;;;899.07;;
5237;SDS011;2639;49.700;7.962;2023-07-13T07:11:47;1999.90;;;999.90;;
5237;SDS011;2639;49.700;7.962;2023-07-13T07:13:04;1999.90;;;999.90;;
5237;SDS011;2639;49.700;7.962;2023-07-13T07:14:07;1999.90;;;999.90;;
5237;SDS011;2639;49.700;7.962;2023-07-13T07:15:09;1999.90;;;999.90;;
5237;SDS011;2639;49.700;7.962;2023-07-13T07:16:12;1999.90;;;999.90;;
5237;SDS011;2639;49.700;7.962;2023-07-13T07:17:14;1999.90;;;999.90;;
5237;SDS011;2639;49.700;7.962;2023-07-13T07:18:16;1999.90;;;999.90;;
5237;SDS011;2639;49.700;7.962;2023-07-13T07:19:18;1999.90;;;999.90;;
5237;SDS011;2639;49.700;7.962;2023-07-13T07:20:21;1999.90;;;999.90;;
5237;SDS011;2639;49.700;7.962;2023-07-13T07:21:23;1999.90;;;999.90;;
5237;SDS011;2639;49.700;7.962;2023-07-13T07:22:27;1999.90;;;999.90;;
5237;SDS011;2639;49.700;7.962;2023-07-13T07:23:29;1999.90;;;999.90;;
5237;SDS011;2639;49.700;7.962;2023-07-13T07:24:32;1999.90;;;999.90;;
5237;SDS011;2639;49.700;7.962;2023-07-13T07:25:34;1999.90;;;999.90;;
5237;SDS011;2639;49.700;7.962;2023-07-13T07:26:38;1999.90;;;999.90;;
5237;SDS011;2639;49.700;7.962;2023-07-13T07:27:44;1999.90;;;999.90;;
5237;SDS011;2639;49.700;7.962;2023-07-13T07:28:49;1999.90;;;999.90;;
5237;SDS011;2639;49.700;7.962;2023-07-13T07:30:12;1999.90;;;999.90;;
5237;SDS011;2639;49.700;7.962;2023-07-13T07:31:17;1999.90;;;999.90;;
5237;SDS011;2639;49.700;7.962;2023-07-13T07:32:22;1999.90;;;999.90;;
5237;SDS011;2639;49.700;7.962;2023-07-13T07:33:27;1999.90;;;999.90;;
5237;SDS011;2639;49.700;7.962;2023-07-13T07:34:30;1999.90;;;999.90;;
5237;SDS011;2639;49.700;7.962;2023-07-13T07:35:32;1999.90;;;999.90;;
5237;SDS011;2639;49.700;7.962;2023-07-13T07:36:42;1999.90;;;999.90;;
5237;SDS011;2639;49.700;7.962;2023-07-13T07:37:46;1999.90;;;999.90;;
5237;SDS011;2639;49.700;7.962;2023-07-13T07:38:51;1999.90;;;999.90;;
5237;SDS011;2639;49.700;7.962;2023-07-13T07:39:54;1999.90;;;999.90;;
5237;SDS011;2639;49.700;7.962;2023-07-13T07:41:02;1999.90;;;999.90;;
5237;SDS011;2639;49.700;7.962;2023-07-13T07:42:07;1999.90;;;999.90;;
5237;SDS011;2639;49.700;7.962;2023-07-13T07:43:11;1999.90;;;999.90;;
5237;SDS011;2639;49.700;7.962;2023-07-13T07:44:14;1999.90;;;999.90;;
5237;SDS011;2639;49.700;7.962;2023-07-13T07:45:16;1999.90;;;999.90;;
5237;SDS011;2639;49.700;7.962;2023-07-13T07:46:18;1999.90;;;999.90;;
5237;SDS011;2639;49.700;7.962;2023-07-13T07:47:21;1999.90;;;999.90;;
5237;SDS011;2639;49.700;7.962;2023-07-13T07:48:25;1999.90;;;999.90;;
5237;SDS011;2639;49.700;7.962;2023-07-13T07:49:27;1999.90;;;999.90;;
5237;SDS011;2639;49.700;7.962;2023-07-13T07:50:29;1999.90;;;999.90;;
5237;SDS011;2639;49.700;7.962;2023-07-13T07:51:33;1999.90;;;999.90;;
5237;SDS011;2639;49.700;7.962;2023-07-13T07:52:34;1999.90;;;999.90;;
5237;SDS011;2639;49.700;7.962;2023-07-13T07:53:37;1999.90;;;999.90;;
5237;SDS011;2639;49.700;7.962;2023-07-13T07:54:39;1999.90;;;999.90;;
5237;SDS011;2639;49.700;7.962;2023-07-13T07:55:45;1999.90;;;999.90;;
5237;SDS011;2639;49.700;7.962;2023-07-13T07:56:51;1999.90;;;999.90;;
5237;SDS011;2639;49.700;7.962;2023-07-13T07:57:57;1999.90;;;999.90;;
5237;SDS011;2639;49.700;7.962;2023-07-13T07:59:02;1999.90;;;999.90;;
5237;SDS011;2639;49.700;7.962;2023-07-13T08:00:08;1999.90;;;999.90;;
5237;SDS011;2639;49.700;7.962;2023-07-13T08:01:16;1999.90;;;999.90;;
5237;SDS011;2639;49.700;7.962;2023-07-13T08:02:22;1999.90;;;999.90;;
5237;SDS011;2639;49.700;7.962;2023-07-13T08:03:26;1999.90;;;999.90;;
5237;SDS011;2639;49.700;7.962;2023-07-13T08:04:49;1999.90;;;999.90;;
5237;SDS011;2639;49.700;7.962;2023-07-13T08:05:53;1999.90;;;999.90;;
5237;SDS011;2639;49.700;7.962;2023-07-13T08:06:59;1999.90;;;999.90;;
5237;SDS011;2639;49.700;7.962;2023-07-13T08:08:04;1999.90;;;999.90;;
5237;SDS011;2639;49.700;7.962;2023-07-13T08:09:06;1999.90;;;999.90;;
5237;SDS011;2639;49.700;7.962;2023-07-13T08:10:09;1999.90;;;999.90;;
5237;SDS011;2639;49.700;7.962;2023-07-13T08:11:13;1999.90;;;999.90;;
5237;SDS011;2639;49.700;7.962;2023-07-13T08:12:18;1634.67;;;999.90;;
5237;SDS011;2639;49.700;7.962;2023-07-13T08:13:41;1999.90;;;999.90;;
5237;SDS011;2639;49.700;7.962;2023-07-13T08:14:43;1999.90;;;999.90;;
5237;SDS011;2639;49.700;7.962;2023-07-13T08:15:53;1999.90;;;999.90;;
5237;SDS011;2639;49.700;7.962;2023-07-13T08:16:55;1999.90;;;999.90;;
5237;SDS011;2639;49.700;7.962;2023-07-13T08:17:58;1999.90;;;999.90;;
5237;SDS011;2639;49.700;7.962;2023-07-13T08:19:00;1999.90;;;999.90;;
5237;SDS011;2639;49.700;7.962;2023-07-13T08:20:03;1999.90;;;999.90;;
5237;SDS011;2639;49.700;7.962;2023-07-13T08:21:05;1735.03;;;999.90;;
5237;SDS011;2639;49.700;7.962;2023-07-13T08:22:09;1999.90;;;999.90;;
5237;SDS011;2639;49.700;7.962;2023-07-13T08:23:11;1819.13;;;999.90;;
5237;SDS011;2639;49.700;7.962;2023-07-13T08:24:14;1999.90;;;999.90;;
5237;SDS011;2639;49.700;7.962;2023-07-13T08:25:16;1999.90;;;999.90;;
5237;SDS011;2639;49.700;7.962;2023-07-13T08:26:20;1722.53;;;999.90;;
5237;SDS011;2639;49.700;7.962;2023-07-13T08:27:23;1999.90;;;999.90;;
5237;SDS011;2639;49.700;7.962;2023-07-13T08:28:27;1999.90;;;999.90;;
5237;SDS011;2639;49.700;7.962;2023-07-13T08:29:29;1999.90;;;999.90;;
5237;SDS011;2639;49.700;7.962;2023-07-13T08:30:33;1999.90;;;999.90;;
5237;SDS011;2639;49.700;7.962;2023-07-13T08:31:34;1963.83;;;999.90;;
5237;SDS011;2639;49.700;7.962;2023-07-13T08:32:37;1694.77;;;999.90;;
5237;SDS011;2639;49.700;7.962;2023-07-13T08:33:39;1681.87;;;999.90;;
5237;SDS011;2639;49.700;7.962;2023-07-13T08:34:42;1999.90;;;999.90;;
5237;SDS011;2639;49.700;7.962;2023-07-13T08:35:45;1844.37;;;999.90;;
5237;SDS011;2639;49.700;7.962;2023-07-13T08:36:48;1999.90;;;999.90;;
5237;SDS011;2639;49.700;7.962;2023-07-13T08:37:49;1361.73;;;999.90;;
5237;SDS011;2639;49.700;7.962;2023-07-13T08:38:52;1999.90;;;999.90;;
5237;SDS011;2639;49.700;7.962;2023-07-13T08:39:54;1999.90;;;999.90;;
5237;SDS011;2639;49.700;7.962;2023-07-13T08:40:56;1647.77;;;999.90;;
5237;SDS011;2639;49.700;7.962;2023-07-13T08:42:00;1999.90;;;999.90;;
5237;SDS011;2639;49.700;7.962;2023-07-13T08:43:08;1999.90;;;999.90;;
5237;SDS011;2639;49.700;7.962;2023-07-13T08:44:19;1999.90;;;999.90;;
5237;SDS011;2639;49.700;7.962;2023-07-13T08:45:30;1217.20;;;992.27;;
5237;SDS011;2639;49.700;7.962;2023-07-13T08:46:40;1715.30;;;999.90;;
5237;SDS011;2639;49.700;7.962;2023-07-13T08:47:46;1914.67;;;999.90;;
5237;SDS011;2639;49.700;7.962;2023-07-13T08:48:57;1392.93;;;999.90;;
5237;SDS011;2639;49.700;7.962;2023-07-13T08:50:02;1999.90;;;999.90;;
5237;SDS011;2639;49.700;7.962;2023-07-13T08:51:08;1331.13;;;999.13;;
5237;SDS011;2639;49.700;7.962;2023-07-13T08:52:16;1682.10;;;999.90;;
5237;SDS011;2639;49.700;7.962;2023-07-13T08:53:34;1340.27;;;999.90;;
5237;SDS011;2639;49.700;7.962;2023-07-13T08:54:41;1233.33;;;995.77;;
5237;SDS011;2639;49.700;7.962;2023-07-13T08:55:57;1754.20;;;999.90;;
5237;SDS011;2639;49.700;7.962;2023-07-13T08:57:03;1380.33;;;999.90;;
5237;SDS011;2639;49.700;7.962;2023-07-13T08:58:14;944.40;;;862.27;;
5237;SDS011;2639;49.700;7.962;2023-07-13T08:59:21;1075.53;;;961.73;;
5237;SDS011;2639;49.700;7.962;2023-07-13T09:00:30;1638.50;;;999.90;;
5237;SDS011;2639;49.700;7.962;2023-07-13T09:01:47;951.07;;;868.77;;
5237;SDS011;2639;49.700;7.962;2023-07-13T09:03:01;1066.40;;;956.97;;
5237;SDS011;2639;49.700;7.962;2023-07-13T09:04:05;1335.70;;;999.90;;
5237;SDS011;2639;49.700;7.962;2023-07-13T09:05:12;797.63;;;736.00;;
5237;SDS011;2639;49.700;7.962;2023-07-13T09:06:28;746.60;;;695.63;;
5237;SDS011;2639;49.700;7.962;2023-07-13T09:07:39;768.30;;;712.80;;
5237;SDS011;2639;49.700;7.962;2023-07-13T09:08:58;851.40;;;789.03;;
5237;SDS011;2639;49.700;7.962;2023-07-13T09:10:06;771.33;;;718.67;;
5237;SDS011;2639;49.700;7.962;2023-07-13T09:11:20;594.07;;;557.53;;
5237;SDS011;2639;49.700;7.962;2023-07-13T09:12:34;153.57;;;146.57;;
5237;SDS011;2639;49.700;7.962;2023-07-13T09:13:45;444.67;;;419.47;;
5237;SDS011;2639;49.700;7.962;2023-07-13T09:14:56;656.83;;;616.83;;
5237;SDS011;2639;49.700;7.962;2023-07-13T09:16:01;807.70;;;740.20;;
5237;SDS011;2639;49.700;7.962;2023-07-13T09:17:07;746.43;;;677.53;;
5237;SDS011;2639;49.700;7.962;2023-07-13T09:18:16;722.77;;;670.97;;
5237;SDS011;2639;49.700;7.962;2023-07-13T09:19:30;840.13;;;771.93;;
5237;SDS011;2639;49.700;7.962;2023-07-13T09:20:37;772.10;;;720.53;;
5237;SDS011;2639;49.700;7.962;2023-07-13T09:21:43;703.63;;;657.97;;
5237;SDS011;2639;49.700;7.962;2023-07-13T09:22:47;664.93;;;625.13;;
5237;SDS011;2639;49.700;7.962;2023-07-13T09:23:50;308.27;;;291.43;;
5237;SDS011;2639;49.700;7.962;2023-07-13T09:24:58;945.67;;;863.47;;
5237;SDS011;2639;49.700;7.962;2023-07-13T09:26:04;478.33;;;434.80;;
5237;SDS011;2639;49.700;7.962;2023-07-13T09:27:11;282.63;;;267.53;;
5237;SDS011;2639;49.700;7.962;2023-07-13T09:28:22;612.70;;;573.67;;
5237;SDS011;2639;49.700;7.962;2023-07-13T09:29:29;656.87;;;610.90;;
5237;SDS011;2639;49.700;7.962;2023-07-13T09:30:37;575.50;;;541.47;;
5237;SDS011;2639;49.700;7.962;2023-07-13T09:31:45;719.67;;;670.70;;
5237;SDS011;2639;49.700;7.962;2023-07-13T09:32:52;775.33;;;720.57;;
5237;SDS011;2639;49.700;7.962;2023-07-13T09:33:55;463.60;;;439.83;;
5237;SDS011;2639;49.700;7.962;2023-07-13T09:34:57;548.60;;;512.67;;
5237;SDS011;2639;49.700;7.962;2023-07-13T09:36:05;422.03;;;397.60;;
5237;SDS011;2639;49.700;7.962;2023-07-13T09:37:20;323.23;;;305.40;;
5237;SDS011;2639;49.700;7.962;2023-07-13T09:38:26;756.07;;;704.20;;
5237;SDS011;2639;49.700;7.962;2023-07-13T09:39:33;654.23;;;615.43;;
5237;SDS011;2639;49.700;7.962;2023-07-13T09:40:40;549.57;;;514.17;;
5237;SDS011;2639;49.700;7.962;2023-07-13T09:41:53;404.87;;;384.57;;
5237;SDS011;2639;49.700;7.962;2023-07-13T09:43:02;278.53;;;263.03;;
5237;SDS011;2639;49.700;7.962;2023-07-13T09:44:08;599.93;;;564.53;;
5237;SDS011;2639;49.700;7.962;2023-07-13T09:45:12;617.33;;;576.60;;
5237;SDS011;2639;49.700;7.962;2023-07-13T09:46:28;87.00;;;82.63;;
5237;SDS011;2639;49.700;7.962;2023-07-13T09:47:30;337.77;;;321.07;;
5237;SDS011;2639;49.700;7.962;2023-07-13T09:48:35;243.67;;;231.40;;
5237;SDS011;2639;49.700;7.962;2023-07-13T09:49:37;480.53;;;453.77;;
5237;SDS011;2639;49.700;7.962;2023-07-13T09:50:40;148.87;;;142.20;;
5237;SDS011;2639;49.700;7.962;2023-07-13T09:51:42;184.10;;;174.93;;
5237;SDS011;2639;49.700;7.962;2023-07-13T09:52:46;61.20;;;58.23;;
5237;SDS011;2639;49.700;7.962;2023-07-13T09:53:49;539.13;;;508.00;;
5237;SDS011;2639;49.700;7.962;2023-07-13T09:54:52;170.60;;;161.80;;
5237;SDS011;2639;49.700;7.962;2023-07-13T09:56:00;133.03;;;123.37;;
5237;SDS011;2639;49.700;7.962;2023-07-13T09:57:03;422.97;;;397.93;;
5237;SDS011;2639;49.700;7.962;2023-07-13T09:58:15;537.63;;;508.17;;
5237;SDS011;2639;49.700;7.962;2023-07-13T09:59:22;834.30;;;776.93;;
5237;SDS011;2639;49.700;7.962;2023-07-13T10:00:27;776.40;;;721.83;;
5237;SDS011;2639;49.700;7.962;2023-07-13T10:01:32;181.60;;;171.63;;
5237;SDS011;2639;49.700;7.962;2023-07-13T10:02:36;361.63;;;340.90;;
5237;SDS011;2639;49.700;7.962;2023-07-13T10:03:39;395.20;;;373.97;;
5237;SDS011;2639;49.700;7.962;2023-07-13T10:04:43;767.63;;;714.67;;
5237;SDS011;2639;49.700;7.962;2023-07-13T10:05:47;688.53;;;629.40;;
5237;SDS011;2639;49.700;7.962;2023-07-13T10:06:51;762.23;;;711.20;;
5237;SDS011;2639;49.700;7.962;2023-07-13T10:08:28;553.53;;;523.27;;
5237;SDS011;2639;49.700;7.962;2023-07-13T10:09:32;622.17;;;586.07;;
5237;SDS011;2639;49.700;7.962;2023-07-13T10:10:35;870.23;;;794.03;;
5237;SDS011;2639;49.700;7.962;2023-07-13T10:11:39;753.83;;;705.00;;
5237;SDS011;2639;49.700;7.962;2023-07-13T10:12:43;712.27;;;666.53;;
5237;SDS011;2639;49.700;7.962;2023-07-13T10:13:48;535.83;;;504.47;;
5237;SDS011;2639;49.700;7.962;2023-07-13T10:14:54;291.13;;;275.70;;
5237;SDS011;2639;49.700;7.962;2023-07-13T10:16:17;506.00;;;472.40;;
5237;SDS011;2639;49.700;7.962;2023-07-13T10:17:19;738.93;;;688.97;;
5237;SDS011;2639;49.700;7.962;2023-07-13T10:18:36;523.03;;;493.00;;
5237;SDS011;2639;49.700;7.962;2023-07-13T10:19:43;762.03;;;711.13;;
5237;SDS011;2639;49.700;7.962;2023-07-13T10:20:47;781.17;;;716.50;;
5237;SDS011;2639;49.700;7.962;2023-07-13T10:21:53;430.13;;;403.67;;
5237;SDS011;2639;49.700;7.962;2023-07-13T10:22:58;456.37;;;431.83;;
5237;SDS011;2639;49.700;7.962;2023-07-13T10:24:05;565.90;;;530.30;;
5237;SDS011;2639;49.700;7.962;2023-07-13T10:25:17;765.57;;;710.87;;
5237;SDS011;2639;49.700;7.962;2023-07-13T10:26:21;739.67;;;690.67;;
5237;SDS011;2639;49.700;7.962;2023-07-13T10:27:29;833.17;;;774.43;;
5237;SDS011;2639;49.700;7.962;2023-07-13T10:28:36;877.43;;;810.37;;
5237;SDS011;2639;49.700;7.962;2023-07-13T10:29:42;685.77;;;644.67;;
5237;SDS011;2639;49.700;7.962;2023-07-13T10:30:48;578.53;;;546.07;;
5237;SDS011;2639;49.700;7.962;2023-07-13T10:31:54;724.73;;;677.00;;
5237;SDS011;2639;49.700;7.962;2023-07-13T10:33:00;872.83;;;808.93;;
5237;SDS011;2639;49.700;7.962;2023-07-13T10:34:07;997.23;;;904.37;;
5237;SDS011;2639;49.700;7.962;2023-07-13T10:35:11;904.53;;;829.60;;
5237;SDS011;2639;49.700;7.962;2023-07-13T10:36:22;903.70;;;833.40;;
5237;SDS011;2639;49.700;7.962;2023-07-13T10:37:36;1388.33;;;999.90;;
5237;SDS011;2639;49.700;7.962;2023-07-13T10:38:45;1230.40;;;999.90;;
5237;SDS011;2639;49.700;7.962;2023-07-13T10:39:51;1662.07;;;999.90;;
5237;SDS011;2639;49.700;7.962;2023-07-13T10:40:58;1777.50;;;999.90;;
5237;SDS011;2639;49.700;7.962;2023-07-13T10:42:05;1999.90;;;999.90;;
5237;SDS011;2639;49.700;7.962;2023-07-13T10:43:18;1092.73;;;961.10;;
5237;SDS011;2639;49.700;7.962;2023-07-13T10:44:26;1439.80;;;999.90;;
5237;SDS011;2639;49.700;7.962;2023-07-13T10:45:32;1489.40;;;999.90;;
5237;SDS011;2639;49.700;7.962;2023-07-13T10:46:37;1582.77;;;999.90;;
5237;SDS011;2639;49.700;7.962;2023-07-13T10:47:41;1490.20;;;999.90;;
5237;SDS011;2639;49.700;7.962;2023-07-13T10:48:43;1449.77;;;999.90;;
5237;SDS011;2639;49.700;7.962;2023-07-13T10:49:49;1156.70;;;990.57;;
5237;SDS011;2639;49.700;7.962;2023-07-13T10:50:54;807.73;;;746.23;;
5237;SDS011;2639;49.700;7.962;2023-07-13T10:52:00;1870.23;;;999.90;;
5237;SDS011;2639;49.700;7.962;2023-07-13T10:53:03;1379.13;;;999.90;;
5237;SDS011;2639;49.700;7.962;2023-07-13T10:54:20;1493.57;;;999.90;;
5237;SDS011;2639;49.700;7.962;2023-07-13T10:55:30;1434.80;;;999.90;;
5237;SDS011;2639;49.700;7.962;2023-07-13T10:56:41;760.00;;;710.23;;
5237;SDS011;2639;49.700;7.962;2023-07-13T10:57:43;1013.57;;;912.40;;
5237;SDS011;2639;49.700;7.962;2023-07-13T10:58:47;1084.47;;;963.43;;